Time;durP1;ratioP1;P1;durP2;ratioP2;P2;SDS_P1;SDS_P2;PMS_P1;PMS_P2;Temp;Humidity;BMP_temperature;BMP_pressure;BME280_temperature;BME280_humidity;BME280_pressure;Samples;Min_cycle;Max_cycle;Signal;HPM_P1;HPM_P2
2022/12/19 00:01:15;;;;;;;34.15;14.27;;;-0.10;10.70;;;;;;5070494;28;20392;-59
2022/12/19 00:03:44;;;;;;;29.70;12.48;;;-0.10;1.00;;;;;;5069547;28;20876;-58
2022/12/19 00:06:10;;;;;;;27.75;12.80;;;-0.20;1.00;;;;;;5071071;28;20819;-59
2022/12/19 00:08:35;;;;;;;32.53;12.33;;;-0.20;1.00;;;;;;5070041;28;20499;-59
2022/12/19 00:11:02;;;;;;;32.10;14.35;;;-0.20;1.00;;;;;;5070349;28;20399;-58
2022/12/19 00:13:31;;;;;;;29.75;12.00;;;-0.10;1.00;;;;;;5070517;28;20407;-59
2022/12/19 00:16:02;;;;;;;28.25;12.48;;;-0.30;1.00;;;;;;5070016;28;20423;-58
2022/12/19 00:18:27;;;;;;;34.63;13.23;;;-0.50;1.00;;;;;;5070695;28;20862;-58
2022/12/19 00:20:55;;;;;;;28.07;11.13;;;-0.50;1.00;;;;;;5051765;28;20391;-58
2022/12/19 00:23:21;;;;;;;32.90;13.32;;;-0.60;1.00;;;;;;5069053;28;20402;-59
2022/12/19 00:25:46;;;;;;;29.38;11.70;;;-0.60;1.00;;;;;;5069232;28;20392;-58
2022/12/19 00:28:12;;;;;;;31.93;12.63;;;-0.60;1.00;;;;;;5069874;28;20455;-59
2022/12/19 00:30:37;;;;;;;28.13;12.10;;;-0.70;1.00;;;;;;5070015;28;20411;-59
2022/12/19 00:33:03;;;;;;;28.93;11.00;;;-0.70;1.00;;;;;;5051498;28;20741;-59
2022/12/19 00:35:29;;;;;;;32.83;12.93;;;-0.80;1.00;;;;;;5069083;28;20408;-59
2022/12/19 00:37:54;;;;;;;33.67;13.85;;;-0.70;44.20;;;;;;5051306;28;20427;-58
2022/12/19 00:40:21;;;;;;;33.90;13.75;;;-0.80;50.20;;;;;;5069815;28;20575;-58
2022/12/19 00:42:47;;;;;;;29.70;11.90;;;;;;;;;;5069252;28;20388;-58
2022/12/19 00:45:12;;;;;;;33.30;13.60;;;-0.50;99.90;;;;;;5062739;28;20447;-59
2022/12/19 00:47:38;;;;;;;31.77;11.48;;;-0.50;99.90;;;;;;5068747;28;20837;-58
2022/12/19 00:50:04;;;;;;;31.47;13.50;;;-0.50;93.40;;;;;;5070000;28;20394;-58
2022/12/19 00:52:30;;;;;;;31.00;13.38;;;;;;;;;;5070163;28;20392;-60
2022/12/19 00:54:56;;;;;;;32.92;12.93;;;-0.40;99.90;;;;;;5069869;28;20514;-58
2022/12/19 00:57:21;;;;;;;35.83;13.87;;;-0.40;99.90;;;;;;5069691;28;20414;-58
2022/12/19 00:59:47;;;;;;;38.22;12.48;;;-0.50;99.90;;;;;;5069097;28;20449;-58
2022/12/19 01:02:13;;;;;;;30.33;13.68;;;-0.50;99.90;;;;;;5069642;28;20388;-58
2022/12/19 01:04:38;;;;;;;31.27;14.00;;;-0.50;99.90;;;;;;5034431;28;20474;-59
2022/12/19 01:07:06;;;;;;;32.23;12.83;;;-0.50;99.90;;;;;;5051456;28;20395;-59
2022/12/19 01:09:33;;;;;;;30.70;12.73;;;;;;;;;;5068860;28;20423;-59
2022/12/19 01:14:43;;;;;;;31.65;13.43;;;-0.40;99.90;;;;;;5069202;28;20457;-58
2022/12/19 01:17:09;;;;;;;34.50;13.43;;;-0.30;99.90;;;;;;5051621;28;20392;-59
2022/12/19 01:19:35;;;;;;;37.58;13.60;;;-0.30;99.90;;;;;;5068866;28;20409;-59
2022/12/19 01:22:00;;;;;;;34.17;13.38;;;-0.20;99.90;;;;;;5069166;28;20740;-59
2022/12/19 01:24:26;;;;;;;28.70;12.70;;;-0.30;99.90;;;;;;5069510;28;20399;-59
2022/12/19 01:26:52;;;;;;;33.83;13.40;;;-0.20;99.90;;;;;;5068964;28;20474;-59
2022/12/19 01:29:17;;;;;;;32.28;12.63;;;-0.20;99.90;;;;;;5069047;28;20436;-59
2022/12/19 01:31:43;;;;;;;31.17;13.02;;;-0.20;99.90;;;;;;5068145;28;20400;-59
2022/12/19 01:34:08;;;;;;;34.50;12.43;;;-0.30;99.90;;;;;;5068801;28;20387;-59
2022/12/19 01:36:34;;;;;;;35.78;12.90;;;-0.30;99.90;;;;;;5068283;28;20412;-59
2022/12/19 01:39:00;;;;;;;35.95;14.88;;;-0.20;99.90;;;;;;5069416;28;20406;-58
2022/12/19 01:41:25;;;;;;;32.03;11.93;;;-0.20;99.90;;;;;;5068715;28;20856;-58
2022/12/19 01:44:00;;;;;;;35.55;13.95;;;-0.10;99.90;;;;;;5068352;28;20757;-58
2022/12/19 01:46:48;;;;;;;32.17;12.90;;;-0.10;99.90;;;;;;5068854;28;20407;-58
2022/12/19 01:49:23;;;;;;;28.40;11.32;;;-0.10;99.90;;;;;;5050596;28;20400;-58
2022/12/19 01:51:52;;;;;;;32.97;12.75;;;;;;;;;;5068192;28;20413;-58
2022/12/19 01:54:21;;;;;;;32.10;12.73;;;-0.20;99.90;;;;;;5069266;28;20384;-59
2022/12/19 01:56:51;;;;;;;35.30;13.40;;;-0.20;99.90;;;;;;5067214;28;20496;-59
2022/12/19 01:59:25;;;;;;;26.80;12.40;;;-0.20;99.90;;;;;;5068154;28;20543;-59
2022/12/19 02:01:57;;;;;;;39.90;14.75;;;-0.10;99.90;;;;;;5067796;28;20394;-59
2022/12/19 02:04:26;;;;;;;33.25;14.68;;;-0.10;99.90;;;;;;5065723;28;20395;-58
2022/12/19 02:06:53;;;;;;;31.00;13.82;;;0.00;99.90;;;;;;5066915;28;20438;-58
2022/12/19 02:09:23;;;;;;;35.60;15.37;;;-0.10;99.90;;;;;;5068472;28;20388;-58
2022/12/19 02:11:49;;;;;;;32.28;13.88;;;-0.10;99.90;;;;;;5067262;28;20400;-58
2022/12/19 02:14:14;;;;;;;33.38;13.57;;;-0.10;99.90;;;;;;5068332;28;20419;-58
2022/12/19 02:17:06;;;;;;;38.55;13.90;;;-0.10;1.00;;;;;;5067379;28;20411;-58
2022/12/19 02:20:05;;;;;;;34.20;12.50;;;-0.10;99.90;;;;;;5068224;28;20388;-58
2022/12/19 02:22:34;;;;;;;37.15;14.20;;;;;;;;;;5068257;28;20384;-58
2022/12/19 02:25:08;;;;;;;39.90;14.18;;;-0.10;1.00;;;;;;5068447;28;20399;-58
2022/12/19 02:28:09;;;;;;;32.88;14.63;;;0.00;1.00;;;;;;5067674;28;20384;-58
2022/12/19 02:30:37;;;;;;;37.75;15.65;;;0.00;1.00;;;;;;5050269;28;20407;-58
2022/12/19 02:33:15;;;;;;;34.43;15.77;;;0.10;99.90;;;;;;5067976;28;20874;-58
2022/12/19 02:35:44;;;;;;;37.40;17.42;;;;;;;;;;5067400;28;20407;-57
2022/12/19 02:38:14;;;;;;;35.45;15.50;;;0.20;1.00;;;;;;5049506;28;20395;-58
2022/12/19 02:41:02;;;;;;;38.35;15.10;;;-0.20;1.00;;;;;;5069499;28;20878;-58
2022/12/19 02:43:31;;;;;;;35.95;15.45;;;-0.20;99.90;;;;;;5072211;28;20839;-58
2022/12/19 02:45:57;;;;;;;36.83;16.45;;;0.10;48.70;;;;;;5071502;28;20395;-59
2022/12/19 02:48:24;;;;;;;35.75;15.40;;;0.00;99.90;;;;;;5072099;28;20460;-58
2022/12/19 02:50:50;;;;;;;41.63;17.35;;;-0.10;99.90;;;;;;5071171;28;20602;-57
2022/12/19 02:53:16;;;;;;;42.50;17.70;;;0.00;99.90;;;;;;5071680;28;20416;-58
2022/12/19 02:56:08;;;;;;;36.67;16.70;;;0.00;1.00;;;;;;5071408;28;20412;-58
2022/12/19 02:58:49;;;;;;;38.22;16.00;;;0.20;99.90;;;;;;5060293;28;20423;-59
2022/12/19 03:01:40;;;;;;;38.63;16.85;;;0.20;99.90;;;;;;5071636;28;20392;-58
2022/12/19 03:04:21;;;;;;;42.67;16.55;;;0.20;99.90;;;;;;5071627;28;20391;-58
2022/12/19 03:06:57;;;;;;;40.05;17.17;;;0.30;1.00;;;;;;5070619;28;20404;-58
2022/12/19 03:09:44;;;;;;;42.40;18.30;;;0.20;1.00;;;;;;5064589;28;20912;-58
2022/12/19 03:12:14;;;;;;;40.22;17.40;;;;;;;;;;5071830;28;20395;-59
2022/12/19 03:14:40;;;;;;;39.38;17.80;;;0.30;1.00;;;;;;5071002;28;20492;-58
2022/12/19 03:17:07;;;;;;;38.38;18.40;;;0.40;1.00;;;;;;5072035;28;20398;-58
2022/12/19 03:19:34;;;;;;;35.50;15.70;;;;;;;;;;5070961;28;20400;-58
2022/12/19 03:22:00;;;;;;;36.33;17.25;;;0.50;1.00;;;;;;5070320;28;20383;-59
2022/12/19 03:24:27;;;;;;;40.57;18.93;;;0.50;99.90;;;;;;5071728;28;20513;-59
2022/12/19 03:27:00;;;;;;;37.90;18.33;;;0.70;99.90;;;;;;5070581;28;20395;-59
2022/12/19 03:29:52;;;;;;;43.15;17.48;;;0.80;1.30;;;;;;5054115;28;20484;-59
2022/12/19 03:32:19;;;;;;;39.93;17.10;;;0.80;1.00;;;;;;5058292;28;20792;-59
2022/12/19 03:34:51;;;;;;;40.55;17.25;;;0.80;1.00;;;;;;5069975;28;20426;-58
2022/12/19 03:37:20;;;;;;;42.80;17.38;;;0.80;99.90;;;;;;5070962;28;20384;-59
2022/12/19 03:39:53;;;;;;;39.58;17.25;;;0.80;99.90;;;;;;5070473;28;20456;-58
2022/12/19 03:45:07;;;;;;;41.97;18.05;;;0.80;99.90;;;;;;5070649;28;20477;-58
2022/12/19 03:47:42;;;;;;;40.97;17.38;;;0.80;1.00;;;;;;5053229;28;20763;-57
2022/12/19 03:50:08;;;;;;;39.60;16.40;;;0.70;99.90;;;;;;5071341;28;20487;-58
2022/12/19 03:52:47;;;;;;;34.22;17.23;;;0.70;99.90;;;;;;5069056;28;20399;-58
2022/12/19 03:55:18;;;;;;;40.70;17.35;;;0.70;99.90;;;;;;5070917;28;20419;-58
2022/12/19 03:57:58;;;;;;;41.33;17.92;;;0.60;1.00;;;;;;5070324;28;20876;-57
2022/12/19 04:00:24;;;;;;;39.85;15.73;;;0.70;1.00;;;;;;5070591;28;20479;-57
2022/12/19 04:02:53;;;;;;;43.28;16.40;;;0.70;1.00;;;;;;5068399;28;20403;-57
2022/12/19 04:05:22;;;;;;;40.10;16.93;;;0.70;26.20;;;;;;5070590;28;20494;-57
2022/12/19 04:07:48;;;;;;;40.40;15.40;;;0.80;1.00;;;;;;5051994;28;20384;-58
2022/12/19 04:10:18;;;;;;;40.03;16.90;;;0.80;1.00;;;;;;5064487;28;20396;-58
2022/12/19 04:12:54;;;;;;;37.72;16.05;;;0.80;1.00;;;;;;5069686;28;20422;-58
2022/12/19 04:15:31;;;;;;;34.95;15.95;;;0.90;99.90;;;;;;5070200;28;20724;-58
2022/12/19 04:17:59;;;;;;;37.50;16.97;;;0.90;1.00;;;;;;5051234;28;20444;-57
2022/12/19 04:20:25;;;;;;;41.15;18.73;;;0.90;99.90;;;;;;5070774;28;20391;-57
2022/12/19 04:23:24;;;;;;;37.22;15.63;;;0.90;1.00;;;;;;5069545;28;20732;-58
2022/12/19 04:25:54;;;;;;;38.57;14.30;;;0.80;99.90;;;;;;5060550;28;20415;-58
2022/12/19 04:28:44;;;;;;;37.67;15.73;;;0.90;99.90;;;;;;5069735;28;20472;-58
2022/12/19 04:31:15;;;;;;;41.55;17.38;;;0.80;1.00;;;;;;5068607;28;20883;-58
2022/12/19 04:33:41;;;;;;;44.10;15.83;;;0.90;77.70;;;;;;5068570;28;20423;-57
2022/12/19 04:36:07;;;;;;;34.77;16.00;;;0.90;1.00;;;;;;5051525;28;20452;-57
2022/12/19 04:38:32;;;;;;;40.10;16.20;;;0.90;1.00;;;;;;5069922;28;20387;-58
2022/12/19 04:40:58;;;;;;;35.10;15.02;;;0.90;99.90;;;;;;5067716;28;20411;-58
2022/12/19 04:43:23;;;;;;;36.25;16.15;;;0.90;99.90;;;;;;5067103;28;20518;-58
2022/12/19 04:45:51;;;;;;;35.13;15.07;;;0.90;99.90;;;;;;5062516;28;21236;-58
2022/12/19 04:48:16;;;;;;;29.48;15.15;;;1.00;32.40;;;;;;5061489;28;20432;-58
2022/12/19 04:50:42;;;;;;;36.00;15.80;;;1.00;99.90;;;;;;5066370;28;20384;-58
2022/12/19 04:53:08;;;;;;;36.05;14.93;;;1.00;1.00;;;;;;5064485;28;20732;-58
2022/12/19 04:55:33;;;;;;;35.63;15.83;;;1.00;17.80;;;;;;5061464;28;20413;-58
2022/12/19 04:58:02;;;;;;;41.63;14.67;;;1.10;1.00;;;;;;5062364;28;21041;-58
2022/12/19 05:00:27;;;;;;;37.37;15.40;;;1.70;99.90;;;;;;5063291;28;20400;-58
2022/12/19 05:02:53;;;;;;;32.20;15.20;;;1.00;99.90;;;;;;5062831;28;20888;-58
2022/12/19 05:05:18;;;;;;;36.42;15.70;;;1.10;99.90;;;;;;5063847;28;20481;-57
2022/12/19 05:07:45;;;;;;;37.63;15.33;;;;;;;;;;5066634;28;20760;-58
2022/12/19 05:10:11;;;;;;;36.50;14.80;;;1.10;1.00;;;;;;5067805;28;20482;-58
2022/12/19 05:12:37;;;;;;;36.73;13.80;;;1.50;1.00;;;;;;5062974;28;20783;-58
2022/12/19 05:15:03;;;;;;;37.60;15.20;;;1.30;1.00;;;;;;5068337;28;20789;-59
2022/12/19 05:17:29;;;;;;;34.15;14.95;;;1.30;1.00;;;;;;5068888;28;20408;-58
2022/12/19 05:19:55;;;;;;;41.17;15.82;;;1.30;1.00;;;;;;5068019;28;20975;-58
2022/12/19 05:22:20;;;;;;;33.55;14.77;;;1.40;1.00;;;;;;5068973;28;20386;-57
2022/12/19 05:24:46;;;;;;;31.33;13.67;;;2.30;1.00;;;;;;5067865;28;20399;-58
2022/12/19 05:27:11;;;;;;;35.40;16.00;;;1.50;99.90;;;;;;5067411;28;20725;-58
2022/12/19 05:29:37;;;;;;;32.28;14.77;;;1.60;1.00;;;;;;5066843;28;20710;-58
2022/12/19 05:32:03;;;;;;;34.07;14.83;;;1.70;99.90;;;;;;5066829;28;20509;-58
2022/12/19 05:34:28;;;;;;;36.03;15.10;;;1.60;1.00;;;;;;5066059;28;20402;-58
2022/12/19 05:36:54;;;;;;;31.10;14.90;;;1.80;1.00;;;;;;5063539;28;20419;-58
2022/12/19 05:39:19;;;;;;;32.20;13.43;;;1.80;99.90;;;;;;5065353;28;20400;-58
2022/12/19 05:41:45;;;;;;;37.95;16.02;;;1.90;99.90;;;;;;5067755;28;20420;-58
2022/12/19 05:44:10;;;;;;;32.90;14.80;;;1.90;99.90;;;;;;5067294;28;20419;-58
2022/12/19 05:46:36;;;;;;;32.97;14.73;;;1.90;99.90;;;;;;5067746;28;20775;-58
2022/12/19 05:49:02;;;;;;;38.20;13.73;;;1.90;99.90;;;;;;5063324;28;20422;-57
2022/12/19 05:51:27;;;;;;;35.53;15.02;;;1.90;99.90;;;;;;5062535;28;20753;-57
2022/12/19 05:53:53;;;;;;;33.50;15.07;;;1.90;99.90;;;;;;5066789;28;20753;-58
2022/12/19 05:56:21;;;;;;;35.00;14.97;;;2.00;31.60;;;;;;5067919;28;20461;-57
2022/12/19 05:58:47;;;;;;;35.78;14.05;;;1.80;99.90;;;;;;5063858;28;20940;-58
2022/12/19 06:01:18;;;;;;;34.50;15.88;;;2.00;99.90;;;;;;5067102;28;20427;-58
2022/12/19 06:03:44;;;;;;;32.90;13.98;;;2.00;1.00;;;;;;5048668;28;20408;-58
2022/12/19 06:06:13;;;;;;;31.42;14.13;;;2.00;99.90;;;;;;5066052;28;20491;-57
2022/12/19 06:08:40;;;;;;;36.10;14.38;;;2.00;99.90;;;;;;5051490;28;20404;-57
2022/12/19 06:11:07;;;;;;;33.92;14.95;;;2.00;99.90;;;;;;5054022;28;20383;-57
2022/12/19 06:13:34;;;;;;;37.25;14.27;;;2.00;99.90;;;;;;5068165;28;20387;-57
2022/12/19 06:16:03;;;;;;;34.10;13.55;;;2.10;99.90;;;;;;5055022;28;20613;-58
2022/12/19 06:18:29;;;;;;;32.20;14.07;;;2.20;99.90;;;;;;5055502;28;20401;-57
2022/12/19 06:20:57;;;;;;;33.47;14.20;;;2.10;99.90;;;;;;5066400;28;20414;-57
2022/12/19 06:23:22;;;;;;;32.03;12.50;;;2.20;99.90;;;;;;5068010;28;20729;-57
2022/12/19 06:25:48;;;;;;;33.85;14.80;;;2.20;1.00;;;;;;5067069;28;20384;-57
2022/12/19 06:28:14;;;;;;;34.00;14.53;;;2.30;1.00;;;;;;5068002;28;20388;-59
2022/12/19 06:30:39;;;;;;;37.35;13.75;;;2.20;1.00;;;;;;5051965;28;21173;-57
2022/12/19 06:33:05;;;;;;;35.50;14.03;;;;;;;;;;5047473;28;20374;-57
2022/12/19 06:35:31;;;;;;;31.80;14.13;;;2.40;1.00;;;;;;5047688;28;20792;-56
2022/12/19 06:37:56;;;;;;;38.07;13.83;;;2.40;99.90;;;;;;5047355;28;20385;-58
2022/12/19 06:43:06;;;;;;;35.85;13.93;;;2.40;1.00;;;;;;5047582;28;20421;-57
2022/12/19 06:45:32;;;;;;;34.13;14.37;;;2.40;99.90;;;;;;5047935;28;20489;-62
2022/12/19 06:47:57;;;;;;;35.37;14.47;;;2.40;99.90;;;;;;5047012;28;20384;-58
2022/12/19 06:50:23;;;;;;;32.50;14.98;;;2.40;99.90;;;;;;5047890;28;20930;-59
2022/12/19 06:52:49;;;;;;;30.93;13.10;;;2.40;1.00;;;;;;5047053;28;20893;-57
2022/12/19 06:55:14;;;;;;;32.15;13.00;;;2.50;99.90;;;;;;5047717;28;20409;-58
2022/12/19 06:57:45;;;;;;;38.10;14.43;;;2.60;38.30;;;;;;5047695;28;20830;-58
2022/12/19 07:00:14;;;;;;;33.90;14.35;;;2.60;65.10;;;;;;5047867;28;21094;-58
2022/12/19 07:02:44;;;;;;;34.60;13.60;;;2.70;1.00;;;;;;5047607;28;20804;-57
2022/12/19 07:05:11;;;;;;;38.45;14.13;;;2.90;99.90;;;;;;5058554;28;20396;-57
2022/12/19 07:07:37;;;;;;;30.25;13.88;;;2.70;99.90;;;;;;5057666;28;20386;-57
2022/12/19 07:10:04;;;;;;;32.25;14.45;;;2.70;1.00;;;;;;5055390;28;20433;-57
2022/12/19 07:12:30;;;;;;;30.05;13.32;;;2.60;1.00;;;;;;5067645;28;20376;-57
2022/12/19 07:14:55;;;;;;;37.53;13.70;;;2.60;30.70;;;;;;5053304;28;20846;-57
2022/12/19 07:17:23;;;;;;;32.87;13.83;;;2.50;1.00;;;;;;5047781;28;20406;-57
2022/12/19 07:19:49;;;;;;;31.95;13.57;;;2.40;36.70;;;;;;5046818;28;20382;-57
2022/12/19 07:22:15;;;;;;;38.45;16.00;;;2.50;99.90;;;;;;5051036;28;20833;-58
2022/12/19 07:24:40;;;;;;;30.02;14.18;;;2.60;99.90;;;;;;5067370;28;20430;-57
2022/12/19 07:27:06;;;;;;;35.13;14.10;;;2.60;1.00;;;;;;5068784;28;20380;-59
2022/12/19 07:29:31;;;;;;;34.45;15.85;;;2.60;1.00;;;;;;5053568;28;20740;-57
2022/12/19 07:31:57;;;;;;;34.60;14.80;;;2.70;1.00;;;;;;5070345;28;20947;-58
2022/12/19 07:34:23;;;;;;;40.30;18.00;;;2.70;99.90;;;;;;5071042;28;20451;-58
2022/12/19 07:36:51;;;;;;;34.35;14.82;;;2.70;99.90;;;;;;5070360;28;20783;-58
2022/12/19 07:39:17;;;;;;;33.95;13.35;;;;;;;;;;5067757;28;20485;-57
2022/12/19 07:41:43;;;;;;;34.47;13.43;;;2.70;1.00;;;;;;5050438;28;20374;-57
2022/12/19 07:44:12;;;;;;;36.45;14.77;;;2.70;99.90;;;;;;5050917;28;20416;-57
2022/12/19 07:46:38;;;;;;;33.63;15.77;;;2.60;1.00;;;;;;5033101;28;20857;-57
2022/12/19 07:49:03;;;;;;;36.33;13.83;;;2.60;1.00;;;;;;5050129;28;20382;-58
2022/12/19 07:51:29;;;;;;;35.88;15.55;;;2.70;1.00;;;;;;5051102;28;20846;-57
2022/12/19 07:53:55;;;;;;;41.08;14.90;;;2.70;99.90;;;;;;5050097;28;20382;-57
2022/12/19 07:56:21;;;;;;;31.20;14.13;;;2.80;18.10;;;;;;5065157;28;20430;-57
2022/12/19 07:58:46;;;;;;;27.77;13.57;;;2.80;1.00;;;;;;5069237;28;20483;-57
2022/12/19 08:01:12;;;;;;;34.40;14.37;;;2.80;1.00;;;;;;5070442;28;20566;-57
2022/12/19 08:03:37;;;;;;;35.90;13.35;;;2.80;1.00;;;;;;5069088;28;20388;-57
2022/12/19 08:06:05;;;;;;;37.30;14.07;;;2.90;1.00;;;;;;5054487;28;20744;-57
2022/12/19 08:08:32;;;;;;;34.83;14.70;;;2.90;99.90;;;;;;5050305;28;20432;-57
2022/12/19 08:11:09;;;;;;;33.30;13.00;;;3.10;1.00;;;;;;5050559;28;20389;-57
2022/12/19 08:13:35;;;;;;;36.50;14.20;;;3.10;1.00;;;;;;5053773;28;20393;-57
2022/12/19 08:16:01;;;;;;;29.58;12.88;;;3.20;1.00;;;;;;5049608;28;20429;-57
2022/12/19 08:18:27;;;;;;;33.70;14.02;;;3.20;99.90;;;;;;5067276;28;20399;-57
2022/12/19 08:20:52;;;;;;;38.40;13.87;;;3.30;1.00;;;;;;5069758;28;20376;-57
2022/12/19 08:23:21;;;;;;;35.10;14.48;;;3.40;1.00;;;;;;5070258;28;20426;-57
2022/12/19 08:25:46;;;;;;;35.63;14.53;;;3.40;99.90;;;;;;5069845;28;20393;-57
2022/12/19 08:28:12;;;;;;;39.27;15.73;;;3.40;99.90;;;;;;5070377;28;20402;-57
2022/12/19 08:30:41;;;;;;;33.78;13.80;;;;;;;;;;5069782;28;20433;-57
2022/12/19 08:33:07;;;;;;;35.60;14.90;;;3.50;99.90;;;;;;5066240;28;20414;-57
2022/12/19 08:35:34;;;;;;;36.87;13.60;;;3.40;99.90;;;;;;5070141;28;20407;-57
2022/12/19 08:38:00;;;;;;;38.60;14.55;;;3.40;99.90;;;;;;5068495;28;20412;-57
2022/12/19 08:40:26;;;;;;;30.70;13.90;;;3.50;99.90;;;;;;5049808;28;20432;-58
2022/12/19 08:42:51;;;;;;;31.50;13.80;;;3.50;99.90;;;;;;5049128;28;20373;-57
2022/12/19 08:45:17;;;;;;;32.83;12.77;;;3.50;99.90;;;;;;5050078;28;20405;-57
2022/12/19 08:47:43;;;;;;;30.70;13.30;;;3.50;99.90;;;;;;5068423;28;20474;-57
2022/12/19 08:50:09;;;;;;;33.23;13.77;;;3.50;99.90;;;;;;5070020;28;20860;-57
2022/12/19 08:52:35;;;;;;;34.10;14.30;;;3.50;1.00;;;;;;5069159;28;20507;-58
2022/12/19 08:55:01;;;;;;;29.67;12.83;;;;;;;;;;5069017;28;21019;-57
2022/12/19 08:57:27;;;;;;;32.57;14.57;;;3.80;99.90;;;;;;5069300;28;20892;-59
2022/12/19 08:59:52;;;;;;;33.50;14.38;;;3.70;1.00;;;;;;5068357;28;20484;-58
2022/12/19 09:02:18;;;;;;;37.30;13.82;;;3.80;2.90;;;;;;5068933;28;20372;-58
2022/12/19 09:04:44;;;;;;;30.57;13.27;;;;;;;;;;5068298;28;20404;-57
2022/12/19 09:07:10;;;;;;;24.75;12.32;;;;;;;;;;5069451;28;20395;-57
2022/12/19 09:09:36;;;;;;;32.15;13.02;;;;;;;;;;5069164;28;20406;-57
2022/12/19 09:12:02;;;;;;;29.80;13.68;;;;;;;;;;5068587;28;20836;-57
2022/12/19 09:14:32;;;;;;;29.45;12.07;;;;;;;;;;5069226;28;20399;-57
2022/12/19 09:16:59;;;;;;;30.85;13.43;;;;;;;;;;5068403;28;20803;-57
2022/12/19 09:19:25;;;;;;;31.10;12.27;;;;;;;;;;5069048;28;20408;-58
2022/12/19 09:21:51;;;;;;;28.55;12.48;;;;;;;;;;5068108;28;20822;-57
2022/12/19 09:24:17;;;;;;;28.50;11.98;;;;;;;;;;5068281;28;20398;-57
2022/12/19 09:26:44;;;;;;;30.48;13.10;;;4.30;74.10;;;;;;5067867;28;20742;-58
2022/12/19 09:29:10;;;;;;;27.45;12.35;;;4.20;90.00;;;;;;5068872;28;20387;-58
2022/12/19 09:31:35;;;;;;;29.07;12.97;;;4.50;35.40;;;;;;5068612;28;20384;-57
2022/12/19 09:34:01;;;;;;;31.58;12.93;;;4.50;1.00;;;;;;5068139;28;20372;-57
2022/12/19 09:36:26;;;;;;;34.27;12.90;;;4.70;1.00;;;;;;5068231;28;20856;-57
2022/12/19 09:38:54;;;;;;;33.90;13.90;;;4.70;1.00;;;;;;5067767;28;20445;-57
2022/12/19 09:42:14;;;;;;;35.47;15.00;;;5.60;1.00;;;;;;5068455;28;20837;-59
2022/12/19 09:44:54;;;;;;;28.15;13.45;;;4.70;1.00;;;;;;4986792;28;20619;-58
2022/12/19 09:47:24;;;;;;;28.80;13.10;;;;;;;;;;5059363;28;20388;-57
2022/12/19 09:49:52;;;;;;;32.70;12.82;;;;;;;;;;5066839;28;20376;-57
2022/12/19 09:52:24;;;;;;;28.23;12.03;;;;;;;;;;5068177;28;20391;-57
2022/12/19 09:54:52;;;;;;;27.57;11.87;;;;;;;;;;5067279;28;20467;-57
2022/12/19 09:57:23;;;;;;;32.53;12.88;;;;;;;;;;5049750;28;20420;-57
2022/12/19 09:59:59;;;;;;;26.80;12.63;;;;;;;;;;5067750;28;20364;-57
2022/12/19 10:02:30;;;;;;;32.58;13.23;;;;;;;;;;5068374;28;20400;-59
2022/12/19 10:05:02;;;;;;;28.05;11.65;;;;;;;;;;5067817;28;20387;-57
2022/12/19 10:07:29;;;;;;;30.27;12.70;;;;;;;;;;5068334;28;20395;-57
2022/12/19 10:09:55;;;;;;;27.43;12.03;;;;;;;;;;5067296;28;20414;-57
2022/12/19 10:12:24;;;;;;;28.92;13.20;;;;;;;;;;5068325;28;20379;-58
2022/12/19 10:15:03;;;;;;;31.08;12.45;;;;;;;;;;5052370;28;20402;-57
2022/12/19 10:17:38;;;;;;;29.10;12.13;;;;;;;;;;5068365;28;20468;-58
2022/12/19 10:20:13;;;;;;;28.10;12.30;;;;;;;;;;5067247;28;20547;-58
2022/12/19 10:22:39;;;;;;;27.40;12.57;;;;;;;;;;5068114;28;20387;-58
2022/12/19 10:25:11;;;;;;;26.25;12.55;;;;;;;;;;5067224;28;20383;-58
2022/12/19 10:27:51;;;;;;;29.90;12.90;;;7.30;1.00;;;;;;5067802;28;20378;-58
2022/12/19 10:30:21;;;;;;;28.50;12.30;;;7.50;1.00;;;;;;5067684;28;20478;-57
2022/12/19 10:33:09;;;;;;;26.73;11.88;;;7.50;1.00;;;;;;5049128;28;20800;-58
2022/12/19 10:35:41;;;;;;;29.08;13.10;;;7.60;1.00;;;;;;5068150;28;20936;-58
2022/12/19 10:38:10;;;;;;;28.52;12.73;;;7.60;1.00;;;;;;5067375;28;20451;-57
2022/12/19 10:40:44;;;;;;;31.50;13.15;;;7.50;1.00;;;;;;5067921;28;20395;-57
2022/12/19 10:43:19;;;;;;;26.85;11.88;;;7.40;1.00;;;;;;5067343;28;20415;-57
2022/12/19 10:45:49;;;;;;;24.60;11.90;;;7.50;1.00;;;;;;5067302;28;20431;-58
2022/12/19 10:48:20;;;;;;;28.90;12.83;;;8.90;1.00;;;;;;5067780;28;20383;-57
2022/12/19 10:50:46;;;;;;;25.77;11.50;;;8.30;1.00;;;;;;5066032;28;20745;-57
2022/12/19 10:53:13;;;;;;;25.97;12.53;;;8.50;1.00;;;;;;5067780;28;20388;-56
2022/12/19 10:55:46;;;;;;;27.88;12.10;;;8.70;1.00;;;;;;5067595;28;20416;-57
2022/12/19 10:58:24;;;;;;;28.10;12.63;;;8.40;1.00;;;;;;5067588;28;20400;-57
2022/12/19 11:01:13;;;;;;;34.50;13.70;;;7.60;1.00;;;;;;5067448;28;20396;-57
2022/12/19 11:03:42;;;;;;;31.05;12.85;;;7.30;1.00;;;;;;5071416;28;20403;-57
2022/12/19 11:06:33;;;;;;;28.50;12.55;;;7.20;1.00;;;;;;5053022;28;20404;-57
2022/12/19 11:09:22;;;;;;;33.40;14.32;;;7.40;1.00;;;;;;5070145;28;20760;-57
2022/12/19 11:12:11;;;;;;;26.55;13.10;;;7.20;1.00;;;;;;5067089;28;20405;-57
2022/12/19 11:14:42;;;;;;;28.25;13.05;;;7.50;1.00;;;;;;5069188;28;20856;-57
2022/12/19 11:17:35;;;;;;;26.30;12.75;;;8.00;1.00;;;;;;5070836;28;20498;-57
2022/12/19 11:20:19;;;;;;;26.50;11.70;;;8.20;1.00;;;;;;5070386;28;20806;-57
2022/12/19 11:23:01;;;;;;;26.55;12.48;;;8.10;1.00;;;;;;5071274;28;20380;-56
2022/12/19 11:25:55;;;;;;;28.55;12.13;;;8.00;1.00;;;;;;5071381;28;20390;-57
2022/12/19 11:28:42;;;;;;;32.47;13.50;;;7.70;1.00;;;;;;5071099;28;20728;-56
2022/12/19 11:31:15;;;;;;;26.88;12.38;;;7.50;1.00;;;;;;5053136;28;20390;-56
2022/12/19 11:33:45;;;;;;;27.90;13.48;;;7.60;1.00;;;;;;5051233;28;20373;-56
2022/12/19 11:36:45;;;;;;;28.73;12.65;;;7.90;1.00;;;;;;5050347;28;20413;-57
2022/12/19 11:39:20;;;;;;;27.48;12.15;;;7.60;1.00;;;;;;5036603;28;20401;-57
2022/12/19 11:42:00;;;;;;;26.75;12.85;;;7.40;1.00;;;;;;5050299;28;20417;-57
2022/12/19 11:44:33;;;;;;;26.37;12.93;;;7.50;1.00;;;;;;5051052;28;20417;-58
2022/12/19 11:47:24;;;;;;;25.00;12.10;;;7.70;1.00;;;;;;5050835;28;20392;-58
2022/12/19 11:50:09;;;;;;;30.60;13.05;;;7.90;1.00;;;;;;5050282;28;20481;-58
2022/12/19 11:52:54;;;;;;;31.33;13.20;;;7.80;1.00;;;;;;5051083;28;20788;-58
2022/12/19 11:55:25;;;;;;;27.70;13.63;;;7.80;1.00;;;;;;5051209;28;20405;-57
2022/12/19 11:57:51;;;;;;;31.95;13.80;;;7.80;1.00;;;;;;5031666;28;20405;-57
2022/12/19 12:00:20;;;;;;;28.50;13.77;;;7.80;1.00;;;;;;5051001;28;20419;-58
2022/12/19 12:02:51;;;;;;;27.73;12.88;;;7.90;1.00;;;;;;5050533;28;20456;-57
2022/12/19 12:05:46;;;;;;;26.85;13.57;;;7.80;1.00;;;;;;5050596;28;20396;-57
2022/12/19 12:08:37;;;;;;;31.77;14.02;;;7.50;1.00;;;;;;5050330;28;20404;-58
2022/12/19 12:11:18;;;;;;;26.52;13.13;;;7.10;1.00;;;;;;5034797;28;21129;-58
2022/12/19 12:13:56;;;;;;;28.55;13.90;;;6.90;1.00;;;;;;5054928;28;20391;-57
2022/12/19 12:16:32;;;;;;;29.70;14.68;;;6.60;1.00;;;;;;5069707;28;20434;-58
2022/12/19 12:19:28;;;;;;;30.53;14.40;;;6.70;1.00;;;;;;5057501;28;20401;-58
2022/12/19 12:22:21;;;;;;;28.83;13.55;;;6.70;1.00;;;;;;5053220;28;20384;-58
2022/12/19 12:25:22;;;;;;;33.08;13.70;;;6.70;1.00;;;;;;5051145;28;20388;-58
2022/12/19 12:28:01;;;;;;;26.25;13.90;;;6.80;1.00;;;;;;5069520;28;20391;-58
2022/12/19 12:30:38;;;;;;;28.83;14.10;;;7.00;1.00;;;;;;5069843;28;20877;-58
2022/12/19 12:33:18;;;;;;;31.43;14.67;;;7.20;1.00;;;;;;5069688;28;20426;-58
2022/12/19 12:35:49;;;;;;;25.75;13.88;;;7.30;1.00;;;;;;5066498;28;20409;-57
2022/12/19 12:38:50;;;;;;;26.95;14.05;;;8.20;1.00;;;;;;5065722;28;20427;-58
2022/12/19 12:42:02;;;;;;;34.90;15.45;;;7.50;1.00;;;;;;5051770;28;20383;-57
2022/12/19 12:44:12;;;;;;;32.03;14.23;;;7.60;1.00;;;;;;5068674;28;20411;-57
2022/12/19 12:46:45;;;;;;;28.95;14.02;;;7.50;1.00;;;;;;5069732;28;20540;-57
2022/12/19 12:49:22;;;;;;;23.98;12.35;;;7.50;1.00;;;;;;5069248;28;20865;-58
2022/12/19 12:51:48;;;;;;;27.53;11.90;;;7.50;1.00;;;;;;5069339;28;20501;-58
2022/12/19 12:54:15;;;;;;;31.73;14.95;;;7.40;1.00;;;;;;5069627;28;20868;-57
2022/12/19 12:56:41;;;;;;;28.05;12.65;;;7.40;1.00;;;;;;5069575;28;20396;-58
2022/12/19 12:59:26;;;;;;;27.90;13.23;;;7.50;1.00;;;;;;5068530;28;20372;-58
2022/12/19 13:01:57;;;;;;;25.55;13.15;;;7.30;1.00;;;;;;5068881;28;20472;-58
2022/12/19 13:04:39;;;;;;;27.60;14.60;;;7.10;1.00;;;;;;5069007;28;20403;-58
2022/12/19 13:07:39;;;;;;;26.30;12.10;;;7.00;1.00;;;;;;5050970;28;20397;-57
2022/12/19 13:10:24;;;;;;;27.83;12.88;;;7.00;1.00;;;;;;5058757;28;20908;-58
2022/12/19 13:12:58;;;;;;;27.63;12.75;;;6.90;1.00;;;;;;5068144;28;20388;-58
2022/12/19 13:15:26;;;;;;;32.33;13.50;;;6.70;1.00;;;;;;5069004;28;20403;-58
2022/12/19 13:17:52;;;;;;;33.35;14.30;;;6.60;1.00;;;;;;5068782;28;20869;-58